createdAt,value
2023-05-02T00:00:12.520Z,34.10
2023-05-02T00:01:12.584Z,34.16
2023-05-02T00:02:12.601Z,34.10
2023-05-02T00:03:12.637Z,34.15
2023-05-02T00:04:12.680Z,34.09
2023-05-02T00:05:12.584Z,34.11
2023-05-02T00:06:14.395Z,34.13
2023-05-02T00:07:12.594Z,34.12
2023-05-02T00:08:12.599Z,34.16
2023-05-02T00:09:12.605Z,34.14
2023-05-02T00:10:12.609Z,34.13
2023-05-02T00:11:12.641Z,34.14
2023-05-02T00:12:12.655Z,34.15
2023-05-02T00:13:12.665Z,34.14
2023-05-02T00:14:12.667Z,34.12
2023-05-02T00:15:12.691Z,34.16
2023-05-02T00:16:12.687Z,34.14
2023-05-02T00:17:12.678Z,34.13
2023-05-02T00:18:12.712Z,34.15
2023-05-02T00:19:12.713Z,34.12
2023-05-02T00:20:12.724Z,34.13
2023-05-02T00:21:12.727Z,34.13
2023-05-02T00:22:12.730Z,34.16
2023-05-02T00:23:12.723Z,34.10
2023-05-02T00:24:12.745Z,34.16
2023-05-02T00:25:12.753Z,34.20
2023-05-02T00:26:12.779Z,34.16
2023-05-02T00:27:12.750Z,34.16
2023-05-02T00:28:12.772Z,34.14
2023-05-02T00:29:12.814Z,34.15
2023-05-02T00:30:12.782Z,34.20
2023-05-02T00:31:12.904Z,34.16
2023-05-02T00:32:12.803Z,34.17
2023-05-02T00:33:13.019Z,34.16
2023-05-02T00:34:12.845Z,34.17
2023-05-02T00:35:12.869Z,34.19
2023-05-02T00:36:12.859Z,34.19
2023-05-02T00:37:12.861Z,34.17
2023-05-02T00:38:12.873Z,34.14
2023-05-02T00:39:12.889Z,34.19
2023-05-02T00:40:12.925Z,34.17
2023-05-02T00:41:12.930Z,34.20
2023-05-02T00:42:12.937Z,34.17
2023-05-02T00:43:12.963Z,34.20
2023-05-02T00:44:12.971Z,34.14
2023-05-02T00:45:12.976Z,34.16
2023-05-02T00:46:13.900Z,34.19
2023-05-02T00:47:12.990Z,34.19
2023-05-02T00:48:13.091Z,34.14
2023-05-02T00:49:13.046Z,34.17
2023-05-02T00:50:13.043Z,34.21
2023-05-02T00:51:13.068Z,34.16
2023-05-02T00:52:13.110Z,34.21
2023-05-02T00:53:13.104Z,34.14
2023-05-02T00:54:13.113Z,34.14
2023-05-02T00:55:13.146Z,34.17
2023-05-02T00:56:13.167Z,34.24
2023-05-02T00:57:13.179Z,34.19
2023-05-02T00:58:13.224Z,34.16
2023-05-02T00:59:13.200Z,34.21
2023-05-02T01:00:13.225Z,34.17
2023-05-02T01:01:13.236Z,34.19
2023-05-02T01:02:13.402Z,34.13
2023-05-02T01:03:13.388Z,34.19
2023-05-02T01:04:13.403Z,34.17
2023-05-02T01:05:13.321Z,34.17
2023-05-02T01:06:13.355Z,34.16
2023-05-02T01:07:13.908Z,34.16
2023-05-02T01:08:13.364Z,34.17
2023-05-02T01:09:13.412Z,34.20
2023-05-02T01:10:13.436Z,34.18
2023-05-02T01:11:13.418Z,34.15
2023-05-02T01:12:13.428Z,34.21
2023-05-02T01:13:13.437Z,34.20
2023-05-02T01:14:13.494Z,34.20
2023-05-02T01:15:13.482Z,34.20
2023-05-02T01:16:13.578Z,34.18
2023-05-02T01:17:13.545Z,34.18
2023-05-02T01:18:13.626Z,34.21
2023-05-02T01:19:13.574Z,34.16
2023-05-02T01:20:13.589Z,34.20
2023-05-02T01:21:13.621Z,34.21
2023-05-02T01:22:13.626Z,34.19
2023-05-02T01:23:13.641Z,34.19
2023-05-02T01:24:13.670Z,34.18
2023-05-02T01:25:13.701Z,34.25
2023-05-02T01:26:13.692Z,34.19
2023-05-02T01:27:13.718Z,34.20
2023-05-02T01:28:13.758Z,34.24
2023-05-02T01:29:13.752Z,34.18
2023-05-02T01:30:13.755Z,34.21
2023-05-02T01:31:13.812Z,34.22
2023-05-02T01:32:13.785Z,34.22
2023-05-02T01:33:13.984Z,34.24
2023-05-02T01:34:13.846Z,34.19
2023-05-02T01:35:13.866Z,34.24
2023-05-02T01:36:13.892Z,34.20
2023-05-02T01:37:13.872Z,34.25
2023-05-02T01:38:13.889Z,34.22
2023-05-02T01:39:13.940Z,34.22
2023-05-02T01:40:13.919Z,34.18
2023-05-02T01:41:13.969Z,34.20
2023-05-02T01:42:13.924Z,34.22
2023-05-02T01:43:14.891Z,34.18
2023-05-02T01:44:13.991Z,34.18
2023-05-02T01:45:13.972Z,34.24
2023-05-02T01:46:14.019Z,34.21
2023-05-02T01:47:14.076Z,34.26
2023-05-02T01:48:14.037Z,34.21
2023-05-02T01:49:14.036Z,34.19
2023-05-02T01:50:14.079Z,34.18
2023-05-02T01:51:14.084Z,34.24
2023-05-02T01:52:14.108Z,34.19
2023-05-02T01:53:14.108Z,34.19
2023-05-02T01:54:14.124Z,34.18
2023-05-02T01:55:14.134Z,34.19
2023-05-02T01:56:14.148Z,34.21
2023-05-02T01:57:14.181Z,34.21
2023-05-02T01:58:14.177Z,34.21
2023-05-02T01:59:14.202Z,34.21
2023-05-02T02:00:14.196Z,34.18
2023-05-02T02:01:14.258Z,34.21
2023-05-02T02:02:14.257Z,34.17
2023-05-02T02:03:14.324Z,34.21
2023-05-02T02:04:14.321Z,34.18
2023-05-02T02:05:14.369Z,34.16
2023-05-02T02:06:14.388Z,34.21
2023-05-02T02:07:14.293Z,34.19
2023-05-02T02:08:14.347Z,34.16
2023-05-02T02:09:14.378Z,34.19
2023-05-02T02:10:14.377Z,34.19
2023-05-02T02:11:14.388Z,34.21
2023-05-02T02:12:14.420Z,34.16
2023-05-02T02:13:14.409Z,34.16
2023-05-02T02:14:14.457Z,34.21
2023-05-02T02:15:14.448Z,34.16
2023-05-02T02:16:14.513Z,34.19
2023-05-02T02:17:14.502Z,34.16
2023-05-02T02:18:14.720Z,34.16
2023-05-02T02:19:14.509Z,34.16
2023-05-02T02:20:14.550Z,34.13
2023-05-02T02:21:14.563Z,34.15
2023-05-02T02:22:14.557Z,34.18
2023-05-02T02:23:14.584Z,34.15
2023-05-02T02:24:14.619Z,34.19
2023-05-02T02:25:14.641Z,34.15
2023-05-02T02:26:14.661Z,34.15
2023-05-02T02:27:14.694Z,34.19
2023-05-02T02:28:14.743Z,34.19
2023-05-02T02:29:14.758Z,34.15
2023-05-02T02:30:14.783Z,34.15
2023-05-02T02:31:14.806Z,34.13
2023-05-02T02:32:14.805Z,34.20
2023-05-02T02:33:14.913Z,34.16
2023-05-02T02:34:14.847Z,34.18
2023-05-02T02:35:14.891Z,34.18
2023-05-02T02:36:14.887Z,34.18
2023-05-02T02:37:14.920Z,34.19
2023-05-02T02:38:14.950Z,34.19
2023-05-02T02:39:14.966Z,34.16
2023-05-02T02:40:15.014Z,34.20
2023-05-02T02:41:15.004Z,34.23
2023-05-02T02:42:15.070Z,34.23
2023-05-02T02:43:15.068Z,34.15
2023-05-02T02:44:15.088Z,34.20
2023-05-02T02:45:15.098Z,34.18
2023-05-02T02:46:15.124Z,34.20
2023-05-02T02:47:15.149Z,34.23
2023-05-02T02:48:15.230Z,34.20
2023-05-02T02:49:15.190Z,34.19
2023-05-02T02:50:15.235Z,34.22
2023-05-02T02:51:15.244Z,34.23
2023-05-02T02:52:15.265Z,34.20
2023-05-02T02:53:15.304Z,34.22
2023-05-02T02:54:25.780Z,34.26
2023-05-02T02:55:16.322Z,34.20
2023-05-02T02:56:15.341Z,34.26
2023-05-02T02:57:15.311Z,34.30
2023-05-02T02:58:15.296Z,34.19
2023-05-02T02:59:15.311Z,34.26
2023-05-02T03:00:15.309Z,34.23
2023-05-02T03:01:15.339Z,34.26
2023-05-02T03:02:15.266Z,34.22
2023-05-02T03:03:15.369Z,34.23
2023-05-02T03:04:15.297Z,34.25
2023-05-02T03:05:15.279Z,34.23
2023-05-02T03:06:15.246Z,34.25
2023-05-02T03:07:15.259Z,34.23
2023-05-02T03:08:15.260Z,34.23
2023-05-02T03:09:15.269Z,34.26
2023-05-02T03:10:15.266Z,34.24
2023-05-02T03:11:15.313Z,34.29
2023-05-02T03:12:15.367Z,34.27
2023-05-02T03:13:15.341Z,34.26
2023-05-02T03:14:15.424Z,34.27
2023-05-02T03:15:15.437Z,34.28
2023-05-02T03:16:15.501Z,34.26
2023-05-02T03:17:15.549Z,34.24
2023-05-02T03:18:15.516Z,34.29
2023-05-02T03:19:15.515Z,34.27
2023-05-02T03:20:15.636Z,34.27
2023-05-02T03:21:15.580Z,34.26
2023-05-02T03:22:15.615Z,34.29
2023-05-02T03:23:15.645Z,34.23
2023-05-02T03:24:17.779Z,34.26
2023-05-02T03:25:15.661Z,34.26
2023-05-02T03:26:15.676Z,34.24
2023-05-02T03:27:15.631Z,34.24
2023-05-02T03:28:15.645Z,34.23
2023-05-02T03:29:15.656Z,34.26
2023-05-02T03:30:15.627Z,34.24
2023-05-02T03:31:15.712Z,34.26
2023-05-02T03:32:15.613Z,34.27
2023-05-02T03:33:15.656Z,34.24
2023-05-02T03:34:15.613Z,34.25
2023-05-02T03:35:15.600Z,34.26
2023-05-02T03:36:15.616Z,34.24
2023-05-02T03:37:15.575Z,34.28
2023-05-02T03:38:15.597Z,34.28
2023-05-02T03:39:15.659Z,34.28
2023-05-02T03:40:15.583Z,34.24
2023-05-02T03:41:15.620Z,34.24
2023-05-02T03:42:15.550Z,34.23
2023-05-02T03:43:15.555Z,34.25
2023-05-02T03:44:15.555Z,34.23
2023-05-02T03:45:15.535Z,34.21
2023-05-02T03:46:15.545Z,34.26
2023-05-02T03:47:15.553Z,34.28
2023-05-02T03:48:15.538Z,34.25
2023-05-02T03:49:15.515Z,34.23
2023-05-02T03:50:15.526Z,34.24
2023-05-02T03:51:15.495Z,34.27
2023-05-02T03:52:15.515Z,34.23
2023-05-02T03:53:15.493Z,34.24
2023-05-02T03:54:15.497Z,34.22
2023-05-02T03:55:15.486Z,34.28
2023-05-02T03:56:15.478Z,34.26
2023-05-02T03:57:15.467Z,34.28
2023-05-02T03:58:15.470Z,34.19
2023-05-02T03:59:15.467Z,34.25
2023-05-02T04:00:15.450Z,34.27
2023-05-02T04:01:15.427Z,34.25
2023-05-02T04:02:15.467Z,34.28
2023-05-02T04:03:15.420Z,34.27
2023-05-02T04:04:15.529Z,34.25
2023-05-02T04:05:15.389Z,34.23
2023-05-02T04:06:15.447Z,34.28
2023-05-02T04:07:15.373Z,34.24
2023-05-02T04:08:15.382Z,34.24
2023-05-02T04:09:15.359Z,34.25
2023-05-02T04:10:15.353Z,34.21
2023-05-02T04:11:15.359Z,34.27
2023-05-02T04:12:15.365Z,34.27
2023-05-02T04:13:15.344Z,34.27
2023-05-02T04:14:15.356Z,34.24
2023-05-02T04:15:15.346Z,34.27
2023-05-02T04:16:15.409Z,34.21
2023-05-02T04:17:15.426Z,34.25
2023-05-02T04:18:15.385Z,34.27
2023-05-02T04:19:15.377Z,34.30
2023-05-02T04:20:15.396Z,34.28
2023-05-02T04:21:15.459Z,34.28
2023-05-02T04:22:15.484Z,34.30
2023-05-02T04:23:15.539Z,34.29
2023-05-02T04:24:15.567Z,34.30
2023-05-02T04:25:15.610Z,34.27
2023-05-02T04:26:15.623Z,34.24
2023-05-02T04:27:15.683Z,34.28
2023-05-02T04:28:15.720Z,34.32
2023-05-02T04:29:15.781Z,34.33
2023-05-02T04:30:15.798Z,34.32
2023-05-02T04:31:15.936Z,34.35
2023-05-02T04:32:15.906Z,34.38
2023-05-02T04:33:16.010Z,34.30
2023-05-02T04:34:15.959Z,34.29
2023-05-02T04:35:16.028Z,34.33
2023-05-02T04:36:16.027Z,34.30
2023-05-02T04:37:16.296Z,34.31
2023-05-02T04:38:16.110Z,34.30
2023-05-02T04:39:16.162Z,34.32
2023-05-02T04:40:16.218Z,34.32
2023-05-02T04:41:16.227Z,34.30
2023-05-02T04:42:16.301Z,34.36
2023-05-02T04:43:16.290Z,34.35
2023-05-02T04:44:16.314Z,34.35
2023-05-02T04:45:16.403Z,34.34
2023-05-02T04:46:16.462Z,34.35
2023-05-02T04:47:16.426Z,34.38
2023-05-02T04:48:16.477Z,34.38
2023-05-02T04:49:16.518Z,34.35
2023-05-02T04:50:16.606Z,34.42
2023-05-02T04:51:17.237Z,34.65
2023-05-02T04:52:16.659Z,34.83
2023-05-02T04:53:16.684Z,34.89
2023-05-02T04:54:16.770Z,35.07
2023-05-02T04:55:16.830Z,35.06
2023-05-02T04:56:16.824Z,35.17
2023-05-02T04:57:16.888Z,35.30
2023-05-02T04:58:16.989Z,35.44
2023-05-02T04:59:17.025Z,35.74
2023-05-02T05:00:17.073Z,35.98
2023-05-02T05:01:17.178Z,36.08
2023-05-02T05:02:17.442Z,36.38
2023-05-02T05:03:17.303Z,36.49
2023-05-02T05:04:17.383Z,36.68
2023-05-02T05:05:17.418Z,36.81
2023-05-02T05:06:17.457Z,36.96
2023-05-02T05:07:17.494Z,37.11
2023-05-02T05:08:17.501Z,37.18
2023-05-02T05:09:17.577Z,37.28
2023-05-02T05:10:18.535Z,37.37
2023-05-02T05:11:17.727Z,37.64
2023-05-02T05:12:17.722Z,37.54
2023-05-02T05:13:17.788Z,37.68
2023-05-02T05:14:17.860Z,37.72
2023-05-02T05:15:17.870Z,37.84
2023-05-02T05:16:17.997Z,37.81
2023-05-02T05:17:17.979Z,38.09
2023-05-02T05:18:18.059Z,38.18
2023-05-02T05:19:18.106Z,38.26
2023-05-02T05:20:18.146Z,38.40
2023-05-02T05:21:18.176Z,38.41
2023-05-02T05:22:18.276Z,38.63
2023-05-02T05:23:18.307Z,38.83
2023-05-02T05:24:18.374Z,38.87
2023-05-02T05:25:18.404Z,39.01
2023-05-02T05:26:18.493Z,39.15
2023-05-02T05:27:18.534Z,39.38
2023-05-02T05:28:18.736Z,39.38
2023-05-02T05:29:18.657Z,39.40
2023-05-02T05:30:18.712Z,39.52
2023-05-02T05:31:18.802Z,39.60
2023-05-02T05:32:18.795Z,39.67
2023-05-02T05:33:18.955Z,39.80
2023-05-02T05:34:18.974Z,39.92
2023-05-02T05:35:18.960Z,39.99
2023-05-02T05:36:19.702Z,39.95
2023-05-02T05:37:19.075Z,40.08
2023-05-02T05:38:19.145Z,40.12
2023-05-02T05:39:19.223Z,40.20
2023-05-02T05:40:19.244Z,40.33
2023-05-02T05:41:19.336Z,40.45
2023-05-02T05:42:19.377Z,40.33
2023-05-02T05:43:19.457Z,40.26
2023-05-02T05:44:19.535Z,40.58
2023-05-02T05:45:19.555Z,40.57
2023-05-02T05:46:19.599Z,40.89
2023-05-02T05:47:19.669Z,41.19
2023-05-02T05:48:19.709Z,41.39
2023-05-02T05:49:19.788Z,41.17
2023-05-02T05:50:19.764Z,41.24
2023-05-02T05:51:19.861Z,41.31
2023-05-02T05:52:19.863Z,41.20
2023-05-02T05:53:19.961Z,41.15
2023-05-02T05:54:20.005Z,41.40
2023-05-02T05:55:20.004Z,41.32
2023-05-02T05:56:20.051Z,41.44
2023-05-02T05:57:20.035Z,41.23
2023-05-02T05:58:20.092Z,41.09
2023-05-02T05:59:20.121Z,41.23
2023-05-02T06:00:20.125Z,41.45
2023-05-02T06:01:20.170Z,41.36
2023-05-02T06:02:20.265Z,41.31
2023-05-02T06:03:20.284Z,41.58
2023-05-02T06:04:20.546Z,41.82
2023-05-02T06:05:20.314Z,41.83
2023-05-02T06:06:20.354Z,41.84
2023-05-02T06:07:20.368Z,41.91
2023-05-02T06:08:20.389Z,42.05
2023-05-02T06:09:20.431Z,42.04
2023-05-02T06:10:20.531Z,42.11
2023-05-02T06:11:20.505Z,42.12
2023-05-02T06:12:20.565Z,42.16
2023-05-02T06:13:20.603Z,42.09
2023-05-02T06:14:20.641Z,42.19
2023-05-02T06:15:20.695Z,42.25
2023-05-02T06:16:20.794Z,42.21
2023-05-02T06:17:20.798Z,42.21
2023-05-02T06:18:20.841Z,42.24
2023-05-02T06:19:20.863Z,42.23
2023-05-02T06:20:20.921Z,42.23
2023-05-02T06:21:20.959Z,42.17
2023-05-02T06:22:21.011Z,42.15
2023-05-02T06:23:21.028Z,42.13
2023-05-02T06:24:21.122Z,42.12
2023-05-02T06:25:21.170Z,42.09
2023-05-02T06:26:21.213Z,42.04
2023-05-02T06:27:21.213Z,42.02
2023-05-02T06:28:21.304Z,42.06
2023-05-02T06:29:21.324Z,42.03
2023-05-02T06:30:21.508Z,41.96
2023-05-02T06:31:21.480Z,41.92
2023-05-02T06:32:21.445Z,41.88
2023-05-02T06:33:21.514Z,41.82
2023-05-02T06:34:21.570Z,41.75
2023-05-02T06:35:21.609Z,41.71
2023-05-02T06:36:21.648Z,41.65
2023-05-02T06:37:21.781Z,41.75
2023-05-02T06:38:21.724Z,41.81
2023-05-02T06:39:21.795Z,41.81
2023-05-02T06:40:21.837Z,41.84
2023-05-02T06:41:21.878Z,41.91
2023-05-02T06:42:21.914Z,41.92
2023-05-02T06:43:21.950Z,41.92
2023-05-02T06:44:22.012Z,41.99
2023-05-02T06:45:22.073Z,41.96
2023-05-02T06:46:22.115Z,41.95
2023-05-02T06:47:22.196Z,42.06
2023-05-02T06:48:22.165Z,42.03
2023-05-02T06:49:22.217Z,42.04
2023-05-02T06:50:22.489Z,42.07
2023-05-02T06:51:22.297Z,42.10
2023-05-02T06:52:22.351Z,41.98
2023-05-02T06:53:22.401Z,41.96
2023-05-02T06:54:22.440Z,41.99
2023-05-02T06:55:22.530Z,42.08
2023-05-02T06:56:22.517Z,42.19
2023-05-02T06:57:22.538Z,42.25
2023-05-02T06:58:22.585Z,42.28
2023-05-02T06:59:22.602Z,42.32
2023-05-02T07:00:22.633Z,42.34
2023-05-02T07:01:22.716Z,42.27
2023-05-02T07:02:22.773Z,42.32
2023-05-02T07:03:22.674Z,42.33
2023-05-02T07:04:22.758Z,42.51
2023-05-02T07:05:22.705Z,42.40
2023-05-02T07:06:22.734Z,42.41
2023-05-02T07:07:22.715Z,42.17
2023-05-02T07:08:22.716Z,42.29
2023-05-02T07:09:22.725Z,42.25
2023-05-02T07:10:22.742Z,42.29
2023-05-02T07:11:22.724Z,42.21
2023-05-02T07:12:22.737Z,42.16
2023-05-02T07:13:22.828Z,42.38
2023-05-02T07:14:22.807Z,42.23
2023-05-02T07:15:22.808Z,42.22
2023-05-02T07:16:22.855Z,42.17
2023-05-02T07:17:22.993Z,42.20
2023-05-02T07:18:22.913Z,42.14
2023-05-02T07:19:22.926Z,42.21
2023-05-02T07:20:22.933Z,42.21
2023-05-02T07:21:22.948Z,42.12
2023-05-02T07:22:22.953Z,42.12
2023-05-02T07:23:23.042Z,42.04
2023-05-02T07:24:23.166Z,42.08
2023-05-02T07:25:23.147Z,42.09
2023-05-02T07:26:23.140Z,42.15
2023-05-02T07:27:23.156Z,42.22
2023-05-02T07:28:23.140Z,42.18
2023-05-02T07:29:23.159Z,42.18
2023-05-02T07:30:23.218Z,42.18
2023-05-02T07:31:23.392Z,42.24
2023-05-02T07:32:23.217Z,42.33
2023-05-02T07:33:23.207Z,42.33
2023-05-02T07:34:23.173Z,42.30
2023-05-02T07:35:23.220Z,42.36
2023-05-02T07:36:23.211Z,42.40
2023-05-02T07:37:23.185Z,42.43
2023-05-02T07:38:23.200Z,42.46
2023-05-02T07:39:23.221Z,42.52
2023-05-02T07:40:23.599Z,42.45
2023-05-02T07:41:23.304Z,42.54
2023-05-02T07:42:23.298Z,42.54
2023-05-02T07:43:23.403Z,42.53
2023-05-02T07:44:23.381Z,42.36
2023-05-02T07:45:23.544Z,42.03
2023-05-02T07:46:23.530Z,42.10
2023-05-02T07:47:23.490Z,42.09
2023-05-02T07:48:24.991Z,42.00
2023-05-02T07:49:23.523Z,41.95
2023-05-02T07:50:23.586Z,43.26
2023-05-02T07:51:23.497Z,42.77
2023-05-02T07:52:23.525Z,42.60
2023-05-02T07:53:23.486Z,42.51
2023-05-02T07:54:23.485Z,42.58
2023-05-02T07:55:23.522Z,42.19
2023-05-02T07:56:23.459Z,41.90
2023-05-02T07:57:23.476Z,42.05
2023-05-02T07:58:23.431Z,42.07
2023-05-02T07:59:23.428Z,41.89
2023-05-02T08:00:23.455Z,42.03
2023-05-02T08:01:23.418Z,41.83
2023-05-02T08:02:23.537Z,42.06
2023-05-02T08:03:23.626Z,41.91
2023-05-02T08:04:23.489Z,41.84
2023-05-02T08:05:23.552Z,41.75
2023-05-02T08:06:23.447Z,41.82
2023-05-02T08:07:23.379Z,41.64
2023-05-02T08:08:23.398Z,41.53
2023-05-02T08:09:23.374Z,41.20
2023-05-02T08:10:23.382Z,40.89
2023-05-02T08:11:23.902Z,40.87
2023-05-02T08:12:23.344Z,40.78
2023-05-02T08:13:23.336Z,40.77
2023-05-02T08:14:23.331Z,40.83
2023-05-02T08:15:23.345Z,40.30
2023-05-02T08:16:23.382Z,40.39
2023-05-02T08:17:23.370Z,40.35
2023-05-02T08:18:23.325Z,40.32
2023-05-02T08:19:23.315Z,40.29
2023-05-02T08:20:23.399Z,39.55
2023-05-02T08:21:23.297Z,39.84
2023-05-02T08:22:23.309Z,40.45
2023-05-02T08:23:23.291Z,40.41
2023-05-02T08:24:23.287Z,40.64
2023-05-02T08:25:23.258Z,40.39
2023-05-02T08:26:23.254Z,39.96
2023-05-02T08:27:23.309Z,39.98
2023-05-02T08:28:23.252Z,40.32
2023-05-02T08:29:23.269Z,40.08
2023-05-02T08:30:23.246Z,40.31
2023-05-02T08:31:23.315Z,40.07
2023-05-02T08:32:23.238Z,39.94
2023-05-02T08:33:23.353Z,39.71
2023-05-02T08:34:23.238Z,40.14
2023-05-02T08:35:23.550Z,39.87
2023-05-02T08:36:23.250Z,40.42
2023-05-02T08:37:23.194Z,39.80
2023-05-02T08:38:23.198Z,40.05
2023-05-02T08:39:23.197Z,39.84
2023-05-02T08:40:34.032Z,40.02
2023-05-02T08:41:24.174Z,39.38
2023-05-02T08:42:23.179Z,39.39
2023-05-02T08:43:23.166Z,40.16
2023-05-02T08:44:23.157Z,39.85
2023-05-02T08:45:23.567Z,39.42
2023-05-02T08:46:23.235Z,39.53
2023-05-02T08:47:23.199Z,39.39
2023-05-02T08:48:23.117Z,39.31
2023-05-02T08:49:23.099Z,39.83
2023-05-02T08:50:23.542Z,40.14
2023-05-02T08:51:23.132Z,39.98
2023-05-02T08:52:23.075Z,40.12
2023-05-02T08:53:23.103Z,40.88
2023-05-02T08:54:23.101Z,40.81
2023-05-02T08:55:23.072Z,40.85
2023-05-02T08:56:23.091Z,40.98
2023-05-02T08:57:23.073Z,40.53
2023-05-02T08:58:23.084Z,40.79
2023-05-02T08:59:23.064Z,40.70
2023-05-02T09:00:23.585Z,40.90
2023-05-02T09:01:23.349Z,40.61
2023-05-02T09:02:23.141Z,40.19
2023-05-02T09:03:23.652Z,40.08
2023-05-02T09:04:23.159Z,40.19
2023-05-02T09:05:23.211Z,40.44
2023-05-02T09:06:23.220Z,40.52
2023-05-02T09:07:23.122Z,40.89
2023-05-02T09:08:23.117Z,40.45
2023-05-02T09:09:23.118Z,40.37
2023-05-02T09:10:23.592Z,40.09
2023-05-02T09:11:23.186Z,40.43
2023-05-02T09:12:23.212Z,40.77
2023-05-02T09:13:23.247Z,40.50
2023-05-02T09:14:23.233Z,40.17
2023-05-02T09:15:23.316Z,40.40
2023-05-02T09:16:23.561Z,40.50
2023-05-02T09:17:23.353Z,40.25
2023-05-02T09:18:23.343Z,40.62
2023-05-02T09:19:23.384Z,40.36
2023-05-02T09:20:23.433Z,40.60
2023-05-02T09:21:23.459Z,40.42
2023-05-02T09:22:23.504Z,40.72
2023-05-02T09:23:23.493Z,40.18
2023-05-02T09:24:23.527Z,40.38
2023-05-02T09:25:25.225Z,40.81
2023-05-02T09:26:23.627Z,40.89
2023-05-02T09:27:23.690Z,41.00
2023-05-02T09:28:23.694Z,40.71
2023-05-02T09:29:23.735Z,40.64
2023-05-02T09:30:24.107Z,40.88
2023-05-02T09:32:23.887Z,41.12
2023-05-02T09:33:23.830Z,41.01
2023-05-02T09:34:23.922Z,40.98
2023-05-02T09:35:23.859Z,40.67
2023-05-02T09:36:23.830Z,40.59
2023-05-02T09:37:23.876Z,40.68
2023-05-02T09:38:23.797Z,40.51
2023-05-02T09:39:25.945Z,40.54
2023-05-02T09:40:24.076Z,40.70
2023-05-02T09:41:23.959Z,40.29
2023-05-02T09:42:24.048Z,39.73
2023-05-02T09:43:24.062Z,39.66
2023-05-02T09:44:24.118Z,39.91
2023-05-02T09:45:24.613Z,39.59
2023-05-02T09:46:24.232Z,39.58
2023-05-02T09:47:24.267Z,39.03
2023-05-02T09:48:24.237Z,37.74
2023-05-02T09:49:24.244Z,37.05
2023-05-02T09:50:24.244Z,38.39
2023-05-02T09:51:24.576Z,39.06
2023-05-02T09:52:24.281Z,39.21
2023-05-02T09:53:24.285Z,39.63
2023-05-02T09:54:24.342Z,39.53
2023-05-02T09:55:24.343Z,39.44
2023-05-02T09:56:26.027Z,39.49
2023-05-02T09:57:24.318Z,39.66
2023-05-02T09:58:24.360Z,39.88
2023-05-02T09:59:24.349Z,39.71
2023-05-02T10:00:24.361Z,39.84
2023-05-02T10:01:24.370Z,39.66
2023-05-02T10:02:24.465Z,39.77
2023-05-02T10:03:24.400Z,39.99
2023-05-02T10:04:24.456Z,40.97
2023-05-02T10:05:24.457Z,40.20
2023-05-02T10:06:24.516Z,40.43
2023-05-02T10:07:24.429Z,40.07
2023-05-02T10:08:24.430Z,40.14
2023-05-02T10:09:24.402Z,40.15
2023-05-02T10:10:24.446Z,40.32
2023-05-02T10:11:24.430Z,40.10
2023-05-02T10:12:24.431Z,40.12
2023-05-02T10:13:24.465Z,39.86
2023-05-02T10:14:25.126Z,39.35
2023-05-02T10:15:24.530Z,39.41
2023-05-02T10:16:24.587Z,39.29
2023-05-02T10:17:24.534Z,39.21
2023-05-02T10:18:24.512Z,39.35
2023-05-02T10:19:24.563Z,39.83
2023-05-02T10:20:25.455Z,39.57
2023-05-02T10:21:24.547Z,39.73
2023-05-02T10:22:24.521Z,40.00
2023-05-02T10:23:24.547Z,40.58
2023-05-02T10:24:24.508Z,40.46
2023-05-02T10:25:24.524Z,40.33
2023-05-02T10:26:24.595Z,40.45
2023-05-02T10:27:24.668Z,40.50
2023-05-02T10:28:24.666Z,40.75
2023-05-02T10:29:24.741Z,40.66
2023-05-02T10:30:24.748Z,40.41
2023-05-02T10:31:24.830Z,40.61
2023-05-02T10:32:24.744Z,40.49
2023-05-02T10:33:24.766Z,40.48
2023-05-02T10:34:24.701Z,40.55
2023-05-02T10:35:24.704Z,40.62
2023-05-02T10:36:25.135Z,40.52
2023-05-02T10:37:24.694Z,40.17
2023-05-02T10:38:24.943Z,40.15
2023-05-02T10:39:24.664Z,40.22
2023-05-02T10:40:24.692Z,40.25
2023-05-02T10:41:25.088Z,40.49
2023-05-02T10:42:24.687Z,40.43
2023-05-02T10:43:24.779Z,40.27
2023-05-02T10:44:25.852Z,40.60
2023-05-02T10:45:24.802Z,40.74
2023-05-02T10:46:24.858Z,40.79
2023-05-02T10:47:24.979Z,40.88
2023-05-02T10:48:24.965Z,40.81
2023-05-02T10:49:24.970Z,40.63
2023-05-02T10:50:26.039Z,40.69
2023-05-02T10:51:25.032Z,40.71
2023-05-02T10:52:25.079Z,40.50
2023-05-02T10:53:25.133Z,40.67
2023-05-02T10:54:25.146Z,40.61
2023-05-02T10:55:25.206Z,40.41
2023-05-02T10:56:26.393Z,40.47
2023-05-02T10:57:25.319Z,40.49
2023-05-02T10:58:25.456Z,40.47
2023-05-02T10:59:25.421Z,40.51
2023-05-02T11:00:25.429Z,40.43
2023-05-02T11:01:25.821Z,40.34
2023-05-02T11:02:25.597Z,40.35
2023-05-02T11:03:25.547Z,40.28
2023-05-02T11:04:25.592Z,40.28
2023-05-02T11:05:25.583Z,40.22
2023-05-02T11:06:25.681Z,40.28
2023-05-02T11:07:25.651Z,40.20
2023-05-02T11:08:25.706Z,40.22
2023-05-02T11:09:25.754Z,40.14
2023-05-02T11:10:25.760Z,40.16
2023-05-02T11:11:25.845Z,40.23
2023-05-02T11:12:25.833Z,39.86
2023-05-02T11:13:25.891Z,39.32
2023-05-02T11:14:25.955Z,38.73
2023-05-02T11:15:25.962Z,38.19
2023-05-02T11:16:26.047Z,38.13
2023-05-02T11:17:26.090Z,38.03
2023-05-02T11:18:26.127Z,37.51
2023-05-02T11:19:26.189Z,37.76
2023-05-02T11:20:26.281Z,37.88
2023-05-02T11:21:26.315Z,38.13
2023-05-02T11:22:26.367Z,38.59
2023-05-02T11:23:26.469Z,38.85
2023-05-02T11:24:26.494Z,38.83
2023-05-02T11:25:27.447Z,38.83
2023-05-02T11:26:26.609Z,38.98
2023-05-02T11:27:26.631Z,39.02
2023-05-02T11:28:26.709Z,38.94
2023-05-02T11:29:26.747Z,38.95
2023-05-02T11:30:26.815Z,38.71
2023-05-02T11:31:27.184Z,38.92
2023-05-02T11:32:26.954Z,39.17
2023-05-02T11:33:26.950Z,39.18
2023-05-02T11:34:26.973Z,39.18
2023-05-02T11:35:27.079Z,39.18
2023-05-02T11:36:27.125Z,39.19
2023-05-02T11:37:28.328Z,39.26
2023-05-02T11:38:28.126Z,39.25
2023-05-02T11:39:27.208Z,39.23
2023-05-02T11:40:27.261Z,39.27
2023-05-02T11:41:27.309Z,39.09
2023-05-02T11:42:27.350Z,38.87
2023-05-02T11:43:28.215Z,38.99
2023-05-02T11:44:27.641Z,39.09
2023-05-02T11:45:27.694Z,39.18
2023-05-02T11:46:27.795Z,39.11
2023-05-02T11:47:27.835Z,38.06
2023-05-02T11:48:27.882Z,38.04
2023-05-02T11:49:27.937Z,38.47
2023-05-02T11:50:28.019Z,38.16
2023-05-02T11:51:28.069Z,38.09
2023-05-02T11:52:28.095Z,38.38
2023-05-02T11:53:28.112Z,38.22
2023-05-02T11:54:28.178Z,38.33
2023-05-02T11:55:28.235Z,38.46
2023-05-02T11:56:28.285Z,37.77
2023-05-02T11:57:28.303Z,38.14
2023-05-02T11:58:28.301Z,38.23
2023-05-02T11:59:28.303Z,38.30
2023-05-02T12:00:28.372Z,38.60
2023-05-02T12:01:28.372Z,38.71
2023-05-02T12:02:28.409Z,38.51
2023-05-02T12:03:28.571Z,38.55
2023-05-02T12:04:28.362Z,38.61
2023-05-02T12:05:28.528Z,38.22
2023-05-02T12:06:28.438Z,37.44
2023-05-02T12:07:28.421Z,37.69
2023-05-02T12:08:28.434Z,38.11
2023-05-02T12:09:28.458Z,38.29
2023-05-02T12:10:28.501Z,38.03
2023-05-02T12:11:28.493Z,37.66
2023-05-02T12:12:28.493Z,37.55
2023-05-02T12:13:28.502Z,37.56
2023-05-02T12:14:28.564Z,37.56
2023-05-02T12:15:28.539Z,37.48
2023-05-02T12:16:28.674Z,37.54
2023-05-02T12:17:28.586Z,37.67
2023-05-02T12:18:28.562Z,37.63
2023-05-02T12:19:28.607Z,37.64
2023-05-02T12:20:28.595Z,37.99
2023-05-02T12:21:28.620Z,38.22
2023-05-02T12:22:28.589Z,38.34
2023-05-02T12:23:28.612Z,38.32
2023-05-02T12:24:28.619Z,38.06
2023-05-02T12:25:28.613Z,38.00
2023-05-02T12:26:28.630Z,37.95
2023-05-02T12:27:28.721Z,38.13
2023-05-02T12:28:28.653Z,38.10
2023-05-02T12:29:28.681Z,37.99
2023-05-02T12:30:28.711Z,38.13
2023-05-02T12:31:28.767Z,38.29
2023-05-02T12:32:28.860Z,38.40
2023-05-02T12:33:28.741Z,38.39
2023-05-02T12:34:28.752Z,38.32
2023-05-02T12:35:28.794Z,38.42
2023-05-02T12:36:28.874Z,38.37
2023-05-02T12:37:28.816Z,38.38
2023-05-02T12:38:28.831Z,38.35
2023-05-02T12:39:28.849Z,38.30
2023-05-02T12:40:28.867Z,38.27
2023-05-02T12:41:28.969Z,38.09
2023-05-02T12:42:29.033Z,38.13
2023-05-02T12:43:29.033Z,38.38
2023-05-02T12:44:29.085Z,38.39
2023-05-02T12:45:29.060Z,38.35
2023-05-02T12:46:29.131Z,38.41
2023-05-02T12:47:29.122Z,38.40
2023-05-02T12:48:29.083Z,37.94
2023-05-02T12:49:29.072Z,38.16
2023-05-02T12:50:29.135Z,38.37
2023-05-02T12:51:29.110Z,38.38
2023-05-02T12:52:29.155Z,38.38
2023-05-02T12:53:29.122Z,38.28